Time;durP1;ratioP1;P1;durP2;ratioP2;P2;SDS_P1;SDS_P2;PMS_P1;PMS_P2;Temp;Humidity;BMP_temperature;BMP_pressure;BME280_temperature;BME280_humidity;BME280_pressure;Samples;Min_cycle;Max_cycle;Signal;HPM_P1;HPM_P2
2023/05/09 00:01:12;;;;;;;12.07;8.80;;;15.90;99.90;;;-144.05;70.56;56955.03;5023492;28;20030;-80
2023/05/09 00:03:38;;;;;;;10.70;8.48;;;15.90;99.90;;;-144.05;70.69;56925.28;5024464;28;20029;-79
2023/05/09 00:06:06;;;;;;;9.18;7.55;;;15.80;99.90;;;-144.05;70.24;56908.31;5006220;28;20048;-79
2023/05/09 00:08:32;;;;;;;10.25;7.63;;;15.70;99.90;;;-144.05;70.25;56935.91;5005458;28;20041;-78
2023/05/09 00:10:58;;;;;;;9.75;8.15;;;15.70;99.90;;;-144.05;70.76;56918.94;5023240;28;20164;-80
2023/05/09 00:13:24;;;;;;;10.73;7.15;;;15.60;99.90;;;-144.05;71.10;56912.56;5022810;28;20081;-79
2023/05/09 00:15:52;;;;;;;10.43;7.65;;;15.40;99.90;;;-144.05;71.22;56916.81;5004757;28;20089;-80
2023/05/09 00:18:21;;;;;;;10.73;7.43;;;15.30;99.90;;;-144.05;71.96;56897.69;5023220;28;20025;-80
2023/05/09 00:20:47;;;;;;;8.45;7.25;;;15.20;99.90;;;-144.05;72.08;56921.06;5007152;28;20040;-79
2023/05/09 00:23:14;;;;;;;11.60;7.97;;;15.00;99.90;;;-144.05;72.83;56921.06;5023414;28;20037;-80
2023/05/09 00:25:40;;;;;;;12.68;9.05;;;14.80;99.90;;;-144.05;74.30;56912.56;5020980;28;20022;-80
2023/05/09 00:28:06;;;;;;;13.38;9.15;;;14.70;99.90;;;-144.05;74.89;56923.19;5005530;28;20037;-78
2023/05/09 00:30:32;;;;;;;10.15;8.00;;;14.70;99.90;;;-144.05;74.55;56923.19;5005515;28;20037;-78
2023/05/09 00:32:58;;;;;;;11.32;7.57;;;14.70;99.90;;;-144.05;74.25;56925.28;5005992;28;20132;-78
2023/05/09 00:35:24;;;;;;;15.57;9.02;;;14.60;99.90;;;-144.05;74.88;56910.44;5006276;28;20094;-80
2023/05/09 00:37:50;;;;;;;11.55;8.45;;;14.60;99.90;;;-144.05;75.14;56921.06;5004404;28;20032;-79
2023/05/09 00:40:16;;;;;;;10.93;9.45;;;14.60;99.90;;;-144.05;75.06;56933.78;5024270;28;20072;-80
2023/05/09 00:42:42;;;;;;;10.82;8.77;;;14.60;99.90;;;-144.05;75.22;56921.06;5022903;28;20128;-81
2023/05/09 00:45:08;;;;;;;11.82;9.32;;;14.70;99.90;;;-144.05;75.60;56929.53;5024123;28;20037;-81
2023/05/09 00:47:35;;;;;;;15.27;9.43;;;14.70;99.90;;;-144.05;75.85;56923.19;5023547;28;20030;-79
2023/05/09 00:50:01;;;;;;;10.07;8.85;;;14.70;99.90;;;-144.05;75.39;56912.56;5022575;28;20132;-81
2023/05/09 00:52:27;;;;;;;15.02;9.57;;;14.70;99.90;;;-144.05;75.52;56923.19;5005054;28;20034;-79
2023/05/09 00:54:54;;;;;;;9.80;8.75;;;14.70;99.90;;;-144.05;76.12;56908.31;5007279;28;20064;-82
2023/05/09 00:57:22;;;;;;;12.07;8.95;;;14.70;99.90;;;-144.05;76.17;56918.94;5005190;28;20041;-78
2023/05/09 00:59:48;;;;;;;12.23;8.35;;;14.70;99.90;;;-144.05;75.18;56923.19;5023905;28;20581;-78
2023/05/09 01:02:18;;;;;;;12.10;9.55;;;14.70;99.90;;;-144.05;75.40;56923.19;5009224;28;20079;-79
2023/05/09 01:04:47;;;;;;;12.55;9.23;;;14.70;99.90;;;-144.05;76.16;56921.06;5024564;28;20033;-79
2023/05/09 01:07:36;;;;;;;11.57;9.50;;;14.70;99.90;;;-144.05;75.63;56914.69;5025658;28;20506;-80
2023/05/09 01:10:24;;;;;;;11.60;9.20;;;14.70;99.90;;;-144.05;75.48;56916.81;5004093;28;20040;-81
2023/05/09 01:13:29;;;;;;;14.80;10.02;;;14.70;99.90;;;-144.05;75.83;56887.06;5023616;28;20120;-82
2023/05/09 01:16:16;;;;;;;13.13;10.05;;;14.70;99.90;;;-144.05;76.10;56935.91;5025524;28;20089;-81
2023/05/09 01:19:17;;;;;;;19.08;10.35;;;14.60;99.90;;;-144.05;75.78;56925.28;5022722;28;20049;-82
2023/05/09 01:21:48;;;;;;;14.88;10.38;;;14.60;99.90;;;-144.05;76.21;56942.28;5021462;28;20033;-81
2023/05/09 01:25:37;;;;;;;12.52;9.90;;;14.60;99.90;;;-144.05;75.46;56933.78;5022251;28;20496;-80
2023/05/09 01:28:55;;;;;;;15.15;11.48;;;14.50;99.90;;;-144.05;76.97;56923.19;4974122;28;20042;-81
2023/05/09 01:31:23;;;;;;;14.55;10.73;;;14.50;99.90;;;-144.05;76.11;56925.28;4992319;28;20030;-79
2023/05/09 01:33:58;;;;;;;17.15;12.48;;;14.40;99.90;;;-144.05;77.01;56929.53;5022953;28;20034;-80
2023/05/09 01:36:31;;;;;;;15.07;11.48;;;14.40;99.90;;;-144.05;76.61;56927.41;5021752;28;20371;-80
2023/05/09 01:38:59;;;;;;;16.55;12.32;;;14.40;99.90;;;-144.05;76.39;56910.44;5021619;28;20382;-80
2023/05/09 01:41:33;;;;;;;14.68;11.73;;;14.40;99.90;;;-144.05;76.67;56912.56;5021594;28;20109;-81
2023/05/09 01:44:06;;;;;;;16.60;12.23;;;14.40;99.90;;;-144.05;77.04;56925.28;5021661;28;20034;-78
2023/05/09 01:46:36;;;;;;;14.95;12.23;;;14.40;99.90;;;-144.05;77.31;56891.31;5003531;28;20429;-79
2023/05/09 01:49:06;;;;;;;14.70;11.32;;;14.40;99.90;;;-144.05;76.96;56918.94;5021324;28;20053;-80
2023/05/09 01:51:35;;;;;;;14.95;12.07;;;14.30;99.90;;;-144.05;76.91;56942.28;5021212;28;20029;-78
2023/05/09 01:54:03;;;;;;;17.35;12.77;;;14.30;99.90;;;-144.05;77.44;56904.06;5021978;28;20048;-79
2023/05/09 01:56:31;;;;;;;14.95;10.95;;;14.30;99.90;;;-144.05;77.33;56906.19;5020959;28;20440;-79
2023/05/09 01:59:01;;;;;;;18.98;12.98;;;14.20;99.90;;;-144.05;78.01;56925.28;5002538;28;20037;-80
2023/05/09 02:01:29;;;;;;;17.20;13.10;;;14.20;99.90;;;-144.05;78.04;56933.78;5019368;28;20359;-79
2023/05/09 02:03:56;;;;;;;15.90;12.18;;;14.30;99.90;;;-144.05;77.71;56918.94;5021295;28;20026;-80
2023/05/09 02:06:23;;;;;;;17.95;13.30;;;14.30;99.90;;;-144.05;78.26;56916.81;5021249;28;20033;-80
2023/05/09 02:08:50;;;;;;;14.43;12.15;;;14.30;99.90;;;-144.05;78.38;56927.41;5002577;28;20069;-79
2023/05/09 02:11:16;;;;;;;17.48;13.77;;;14.30;99.90;;;-144.05;78.68;56929.53;5020631;28;20077;-80
2023/05/09 02:13:42;;;;;;;18.70;13.20;;;14.30;99.90;;;-144.05;78.43;56904.06;5019297;28;20049;-81
2023/05/09 02:16:09;;;;;;;20.55;13.45;;;14.30;99.90;;;-144.05;78.00;56918.94;5018921;28;20061;-80
2023/05/09 02:18:36;;;;;;;16.65;12.60;;;14.30;99.90;;;-144.05;77.49;56918.94;5001277;28;20041;-79
2023/05/09 02:21:03;;;;;;;17.55;13.82;;;14.20;99.90;;;-144.05;77.59;56946.53;5001728;28;20026;-79
2023/05/09 02:23:30;;;;;;;18.90;13.95;;;14.10;99.90;;;-144.05;77.56;56925.28;5001241;28;20068;-82
2023/05/09 02:25:56;;;;;;;22.40;15.07;;;14.10;99.90;;;-144.05;78.31;56901.94;5020307;28;20052;-79
2023/05/09 02:28:26;;;;;;;21.65;16.38;;;14.10;99.90;;;-144.05;79.52;56916.81;5021104;28;20029;-78
2023/05/09 02:30:57;;;;;;;22.88;16.05;;;14.10;99.90;;;-144.05;78.94;56929.53;5021053;28;20485;-78
2023/05/09 02:33:26;;;;;;;22.45;16.92;;;14.10;99.90;;;-144.05;78.97;56938.03;5021825;28;20038;-79
2023/05/09 02:35:54;;;;;;;24.38;17.17;;;14.10;99.90;;;-144.05;79.36;56912.56;5002568;28;20029;-79
2023/05/09 02:38:21;;;;;;;21.73;17.15;;;14.10;99.90;;;-144.05;78.86;56927.41;5002121;28;20128;-80
2023/05/09 02:40:49;;;;;;;23.25;18.05;;;14.00;99.90;;;-144.05;79.35;56931.66;5008476;28;20032;-80
2023/05/09 02:43:15;;;;;;;27.08;18.73;;;14.00;99.90;;;-144.05;79.05;56912.56;5030626;28;20327;-81
2023/05/09 02:45:42;;;;;;;27.08;18.73;;;14.00;99.90;;;-144.05;79.37;56921.06;5030122;28;20048;-79
2023/05/09 02:48:08;;;;;;;20.90;16.80;;;14.00;99.90;;;-144.05;79.57;56940.16;5008251;28;20508;-77
2023/05/09 02:50:34;;;;;;;24.20;18.55;;;14.00;99.90;;;-144.05;79.65;56897.69;5019949;28;20030;-78
2023/05/09 02:53:00;;;;;;;25.95;18.85;;;14.00;99.90;;;-144.05;79.74;56935.91;5003494;28;20026;-78
2023/05/09 02:55:26;;;;;;;24.20;17.42;;;13.90;99.90;;;-144.05;79.37;56952.91;5003148;28;20030;-80
2023/05/09 02:57:52;;;;;;;26.55;18.48;;;13.90;99.90;;;-144.05;79.81;56901.94;5003948;28;20069;-81
2023/05/09 03:00:20;;;;;;;25.08;16.77;;;14.00;99.90;;;-144.05;79.50;56912.56;5003001;28;20030;-80
2023/05/09 03:02:46;;;;;;;26.50;18.30;;;13.90;99.90;;;-144.05;79.40;56925.28;5021069;28;20040;-80
2023/05/09 03:05:12;;;;;;;25.77;17.67;;;13.90;99.90;;;-144.05;79.94;56931.66;5020558;28;20474;-79
2023/05/09 03:07:38;;;;;;;28.65;19.17;;;13.90;99.90;;;-144.05;80.17;56916.81;5020510;28;20095;-79
2023/05/09 03:10:04;;;;;;;24.27;17.45;;;13.90;99.90;;;-144.05;80.28;56940.16;5003542;28;20036;-79
2023/05/09 03:12:30;;;;;;;26.65;19.00;;;13.80;99.90;;;-144.05;80.69;56916.81;5003349;28;20029;-79
2023/05/09 03:14:56;;;;;;;26.17;19.00;;;13.90;99.90;;;-144.05;80.85;56931.66;5020735;28;20157;-79
2023/05/09 03:17:22;;;;;;;27.17;19.17;;;13.90;99.90;;;-144.05;80.39;56901.94;5020814;28;20115;-78
2023/05/09 03:19:48;;;;;;;30.65;20.60;;;13.90;99.90;;;-144.05;80.62;56921.06;5002182;28;20033;-80
2023/05/09 03:22:14;;;;;;;26.30;19.02;;;13.90;99.90;;;-144.05;80.43;56912.56;5021135;28;20394;-81
2023/05/09 03:24:40;;;;;;;27.75;18.33;;;13.90;99.90;;;-144.05;80.34;56908.31;5021716;28;20517;-79
2023/05/09 03:27:06;;;;;;;26.42;19.00;;;13.80;99.90;;;-144.05;80.31;56938.03;5002369;28;20045;-81
2023/05/09 03:29:32;;;;;;;25.38;18.60;;;13.90;99.90;;;-144.05;80.57;56918.94;5018468;28;20033;-78
2023/05/09 03:31:58;;;;;;;24.10;18.70;;;13.90;99.90;;;-144.05;80.46;56893.44;5000258;28;20034;-78
2023/05/09 03:34:24;;;;;;;27.05;17.52;;;13.90;99.90;;;-144.05;80.54;56882.81;5019321;28;20458;-79
2023/05/09 03:36:50;;;;;;;24.10;18.20;;;13.90;99.90;;;-144.05;80.00;56912.56;5017958;28;20022;-79
2023/05/09 03:39:15;;;;;;;25.48;18.65;;;13.90;99.90;;;-144.05;80.11;56942.28;5003831;28;20034;-80
2023/05/09 03:41:43;;;;;;;24.23;16.90;;;14.00;99.90;;;-144.05;79.97;56921.06;5021798;28;20040;-80
2023/05/09 03:44:08;;;;;;;21.73;16.05;;;13.90;99.90;;;-144.05;79.85;56948.66;5022114;28;20434;-79
2023/05/09 03:46:34;;;;;;;23.15;16.52;;;14.00;99.90;;;-144.05;79.87;56906.19;5005149;28;20026;-78
2023/05/09 03:49:00;;;;;;;26.13;16.98;;;14.00;99.90;;;-144.05;79.62;56923.19;5005258;28;20034;-79
2023/05/09 03:51:26;;;;;;;21.17;16.27;;;13.90;99.90;;;-144.05;79.63;56942.28;5023881;28;20072;-79
2023/05/09 03:53:52;;;;;;;23.10;16.70;;;14.00;99.90;;;-144.05;79.80;56923.19;5023203;28;20081;-81
2023/05/09 03:56:18;;;;;;;21.65;15.55;;;13.90;99.90;;;-144.05;79.63;56925.28;5023009;28;20029;-77
2023/05/09 03:58:43;;;;;;;26.58;17.88;;;13.90;99.90;;;-144.05;79.60;56931.66;5022934;28;20045;-78
2023/05/09 04:01:10;;;;;;;23.70;16.65;;;13.90;99.90;;;-144.05;79.63;56931.66;5024817;28;20026;-82
2023/05/09 04:03:36;;;;;;;23.67;16.55;;;13.90;99.90;;;-144.05;79.93;56929.53;5024098;28;20036;-78
2023/05/09 04:06:02;;;;;;;26.05;18.50;;;13.90;99.90;;;-144.05;80.28;56923.19;5024928;28;20026;-80
2023/05/09 04:08:28;;;;;;;26.60;19.50;;;13.90;99.90;;;-144.05;80.48;56895.56;5006201;28;20029;-80
2023/05/09 04:10:54;;;;;;;27.05;19.35;;;14.00;99.90;;;-144.05;80.74;56918.94;5024083;28;20107;-81
2023/05/09 04:13:20;;;;;;;28.77;19.75;;;14.00;99.90;;;-144.05;80.58;56910.44;5020984;28;20415;-81
2023/05/09 04:15:45;;;;;;;24.52;18.80;;;14.00;99.90;;;-144.05;80.25;56929.53;5005158;28;20061;-81
2023/05/09 04:18:11;;;;;;;25.17;19.33;;;14.10;99.90;;;-144.05;80.24;56916.81;5022546;28;20022;-82
2023/05/09 04:20:37;;;;;;;31.30;20.95;;;14.10;99.90;;;-144.05;80.07;56921.06;5019625;28;20030;-75
2023/05/09 04:23:03;;;;;;;26.35;20.60;;;14.20;99.90;;;-144.05;79.62;56912.56;5022253;28;20030;-77
2023/05/09 04:25:30;;;;;;;29.60;20.45;;;14.30;99.90;;;-144.05;79.56;56921.06;5024121;28;20133;-78
2023/05/09 04:27:56;;;;;;;27.38;19.10;;;14.30;99.90;;;-144.05;79.65;56944.41;5023987;28;20045;-79
2023/05/09 04:30:25;;;;;;;25.13;17.88;;;14.30;99.90;;;-144.05;79.43;56948.66;5006439;28;20061;-81
2023/05/09 04:32:52;;;;;;;31.23;21.20;;;14.30;99.90;;;-144.05;79.97;56927.41;5023509;28;20046;-79
2023/05/09 04:35:18;;;;;;;28.83;19.63;;;14.40;99.90;;;-144.05;79.45;56938.03;5023242;28;20026;-77
2023/05/09 04:37:44;;;;;;;27.55;21.20;;;14.40;99.90;;;-144.05;79.10;56931.66;5026104;28;20520;-78
2023/05/09 04:40:11;;;;;;;28.98;20.75;;;14.50;99.90;;;-144.05;79.07;56938.03;5020595;28;20037;-78
2023/05/09 04:42:37;;;;;;;28.23;20.15;;;14.50;99.90;;;-144.05;78.93;56904.06;5022135;28;20072;-80
2023/05/09 04:45:04;;;;;;;25.67;19.58;;;14.60;99.90;;;-144.05;78.84;56921.06;5024464;28;20030;-76
2023/05/09 04:47:30;;;;;;;30.25;18.73;;;14.60;99.90;;;-144.05;78.43;56933.78;5021121;28;20025;-78
2023/05/09 04:49:56;;;;;;;29.80;21.20;;;14.70;99.90;;;-144.05;78.27;56929.53;5025568;28;20060;-80
2023/05/09 04:52:22;;;;;;;25.58;19.08;;;14.80;99.90;;;-144.05;78.22;56940.16;5027009;28;20030;-81
2023/05/09 04:54:48;;;;;;;25.10;18.80;;;14.80;99.90;;;-144.05;77.93;56942.28;5007863;28;20030;-79
2023/05/09 04:57:14;;;;;;;23.90;16.85;;;14.90;99.90;;;-144.05;77.95;56912.56;5026320;28;20552;-77
2023/05/09 04:59:40;;;;;;;26.42;17.95;;;14.90;99.90;;;-144.05;77.64;56952.91;5015582;28;20113;-81
2023/05/09 05:02:06;;;;;;;21.95;17.13;;;15.00;99.90;;;-144.05;77.44;56921.06;5026841;28;20374;-79
2023/05/09 05:04:32;;;;;;;20.90;16.60;;;15.00;99.90;;;-144.05;77.33;56908.31;5026297;28;20022;-80
2023/05/09 05:06:58;;;;;;;18.85;14.75;;;15.10;99.90;;;-144.05;77.29;56929.53;5027325;28;20501;-79
2023/05/09 05:09:24;;;;;;;24.70;16.23;;;15.10;99.90;;;-144.05;77.21;56923.19;5027212;28;20037;-78
2023/05/09 05:11:49;;;;;;;23.50;16.00;;;15.20;99.90;;;-144.05;76.99;56940.16;5028702;28;20036;-81
2023/05/09 05:14:15;;;;;;;25.48;19.02;;;15.20;99.90;;;-144.05;76.88;56925.28;5027107;28;20136;-80
2023/05/09 05:16:41;;;;;;;23.75;17.60;;;15.20;99.90;;;-144.05;76.74;56948.66;5027862;28;20030;-79
2023/05/09 05:19:07;;;;;;;25.45;18.00;;;15.30;99.90;;;-144.05;76.25;56931.66;5011176;28;20030;-80
2023/05/09 05:21:33;;;;;;;24.20;17.88;;;15.30;99.90;;;-144.05;76.05;56906.19;5013107;28;20052;-80
2023/05/09 05:23:58;;;;;;;25.05;18.05;;;15.30;99.90;;;-144.05;75.65;56916.81;5034159;28;20029;-79
2023/05/09 05:26:24;;;;;;;27.25;19.27;;;15.30;99.90;;;-144.05;76.00;56916.81;5034546;28;20037;-80
2023/05/09 05:28:54;;;;;;;25.10;18.25;;;15.30;99.90;;;-144.05;75.75;56910.44;5020084;28;20049;-79
2023/05/09 05:31:20;;;;;;;29.30;18.95;;;15.40;99.90;;;-144.05;75.87;56921.06;5036479;28;20053;-77
2023/05/09 05:33:46;;;;;;;26.95;18.10;;;15.40;99.90;;;-144.05;75.64;56925.28;5035583;28;20022;-79
2023/05/09 05:36:12;;;;;;;29.10;19.55;;;15.40;99.90;;;-144.05;75.65;56940.16;5011847;28;20060;-79
2023/05/09 05:38:38;;;;;;;26.73;19.17;;;15.40;99.90;;;-144.05;75.53;56918.94;5009962;28;20084;-81
2023/05/09 05:41:04;;;;;;;26.30;17.92;;;15.40;99.90;;;-144.05;75.15;56938.03;5025831;28;20037;-81
2023/05/09 05:43:30;;;;;;;21.02;16.20;;;15.50;99.90;;;-144.05;75.20;56918.94;5008071;28;20037;-80
2023/05/09 05:45:56;;;;;;;20.80;15.32;;;15.50;99.90;;;-144.05;75.48;56938.03;5024530;28;20367;-79
2023/05/09 05:48:22;;;;;;;22.20;15.73;;;15.40;99.90;;;-144.05;75.49;56929.53;5026130;28;20026;-80
2023/05/09 05:50:48;;;;;;;19.48;15.40;;;15.40;99.90;;;-144.05;75.43;56925.28;5007516;28;20112;-82
2023/05/09 05:53:13;;;;;;;23.75;15.65;;;15.50;99.90;;;-144.05;75.72;56931.66;5007477;28;20026;-82
2023/05/09 05:55:39;;;;;;;23.40;15.90;;;15.50;99.90;;;-144.05;75.62;56931.66;5025610;28;20026;-77
2023/05/09 05:58:05;;;;;;;22.98;17.13;;;15.40;99.90;;;-144.05;75.54;56918.94;5009186;28;20029;-81
2023/05/09 06:00:31;;;;;;;23.17;17.25;;;15.40;99.90;;;-144.05;75.79;56938.03;5025655;28;20084;-78
2023/05/09 06:02:57;;;;;;;28.40;18.88;;;15.50;99.90;;;-144.05;75.76;56938.03;5026077;28;20048;-79
2023/05/09 06:05:23;;;;;;;22.10;16.25;;;15.50;99.90;;;-144.05;75.71;56946.53;5009135;28;20026;-80
2023/05/09 06:07:49;;;;;;;28.50;18.52;;;15.60;99.90;;;-144.05;75.48;56910.44;5025813;28;20098;-80
2023/05/09 06:10:15;;;;;;;26.05;18.40;;;15.60;99.90;;;-144.05;75.19;56904.06;5027554;28;20029;-79
2023/05/09 06:12:41;;;;;;;24.58;16.63;;;15.70;99.90;;;-144.05;75.01;56933.78;5025993;28;20393;-80
2023/05/09 06:15:08;;;;;;;22.67;17.92;;;15.80;99.90;;;-144.05;74.65;56931.66;5025682;28;20057;-81
2023/05/09 06:17:34;;;;;;;27.98;17.30;;;15.90;99.90;;;-144.05;74.66;56935.91;5025735;28;20516;-78
2023/05/09 06:20:00;;;;;;;24.23;17.60;;;15.90;99.90;;;-144.05;74.54;56931.66;5025673;28;20065;-79
2023/05/09 06:22:25;;;;;;;20.75;16.60;;;16.00;99.90;;;-144.05;74.29;56948.66;5007508;28;20402;-79
2023/05/09 06:24:51;;;;;;;24.90;18.52;;;16.00;99.90;;;-144.05;73.83;56923.19;5027277;28;20057;-82
2023/05/09 06:27:18;;;;;;;26.15;18.77;;;16.10;99.90;;;-144.05;73.55;56923.19;5011302;28;20026;-82
2023/05/09 06:29:43;;;;;;;24.52;18.25;;;16.10;99.90;;;-144.05;73.57;56929.53;5010669;28;20026;-81
2023/05/09 06:32:09;;;;;;;26.13;19.40;;;16.10;99.90;;;-144.05;73.19;56948.66;5027345;28;20041;-82
2023/05/09 06:34:35;;;;;;;23.13;18.08;;;16.20;99.90;;;-144.05;72.65;56918.94;5024236;28;20037;-80
2023/05/09 06:37:01;;;;;;;24.33;17.98;;;16.40;99.90;;;-144.05;72.16;56938.03;5022823;28;20026;-81
2023/05/09 06:39:27;;;;;;;25.52;19.08;;;16.50;99.90;;;-144.05;71.24;56935.91;5022688;28;20034;-80
2023/05/09 06:41:52;;;;;;;23.10;17.20;;;16.70;99.90;;;-144.05;70.82;56950.78;5004722;28;20354;-81
2023/05/09 06:44:18;;;;;;;22.02;16.30;;;16.80;99.90;;;-144.05;69.80;56914.69;5023309;28;20038;-78
2023/05/09 06:46:44;;;;;;;25.63;17.00;;;17.00;99.90;;;-144.05;69.23;56935.91;5006230;28;20403;-81
2023/05/09 06:49:12;;;;;;;25.80;17.70;;;17.10;99.90;;;-144.05;67.76;56940.16;5024263;28;20488;-80
2023/05/09 06:51:38;;;;;;;22.27;15.82;;;17.10;99.90;;;-144.05;67.88;56921.06;5006264;28;20029;-80
2023/05/09 06:54:04;;;;;;;21.15;16.27;;;17.20;99.90;;;-144.05;67.91;56952.91;5024026;28;20064;-81
2023/05/09 06:56:30;;;;;;;21.00;16.08;;;17.30;99.90;;;-144.05;67.24;56929.53;5022407;28;20030;-80
2023/05/09 06:58:56;;;;;;;20.73;15.73;;;17.30;99.90;;;-144.05;67.39;56955.03;5004437;28;20397;-79
2023/05/09 07:01:22;;;;;;;20.85;15.98;;;17.40;99.90;;;-144.05;67.15;56946.53;5022729;28;20074;-81
2023/05/09 07:03:48;;;;;;;20.05;15.63;;;17.50;99.90;;;-144.05;67.34;56946.53;5004475;28;20030;-79
2023/05/09 07:06:14;;;;;;;25.23;16.92;;;17.60;99.90;;;-144.05;66.63;56955.03;5021211;28;20034;-77
2023/05/09 07:08:40;;;;;;;22.10;15.77;;;17.70;99.90;;;-144.05;66.31;56952.91;5001750;28;20061;-80
2023/05/09 07:11:06;;;;;;;19.23;15.13;;;17.70;99.90;;;-144.05;65.83;56931.66;5018894;28;20061;-79
2023/05/09 07:13:32;;;;;;;20.20;15.48;;;17.80;99.90;;;-144.05;65.69;56921.06;5018395;28;20069;-81
2023/05/09 07:15:58;;;;;;;20.40;15.02;;;17.90;99.90;;;-144.05;65.63;56950.78;5020028;28;20026;-80
2023/05/09 07:18:24;;;;;;;21.88;15.98;;;18.10;99.90;;;-144.05;65.81;56940.16;5021214;28;20470;-82
2023/05/09 07:20:51;;;;;;;20.25;14.35;;;18.10;99.90;;;-144.05;64.76;56950.78;5006502;28;20041;-81
2023/05/09 07:23:16;;;;;;;20.73;13.82;;;18.20;99.90;;;-144.05;65.65;56940.16;5019339;28;20033;-80
2023/05/09 07:25:44;;;;;;;19.23;13.48;;;18.10;99.90;;;-144.05;65.67;56946.53;5019975;28;20049;-80
2023/05/09 07:28:11;;;;;;;15.23;12.48;;;18.10;99.90;;;-144.05;66.16;56931.66;5002540;28;20034;-81
2023/05/09 07:30:37;;;;;;;14.30;11.98;;;18.00;99.90;;;-144.05;66.46;56952.91;5003427;28;20041;-80
2023/05/09 07:33:03;;;;;;;16.35;11.68;;;18.10;99.90;;;-144.05;65.16;56946.53;5020434;28;20056;-80
2023/05/09 07:35:29;;;;;;;18.42;11.82;;;18.40;99.90;;;-144.05;63.13;56935.91;5021202;28;20061;-80
2023/05/09 07:37:55;;;;;;;16.83;11.73;;;18.70;99.90;;;-144.05;62.33;56957.16;5003230;28;20026;-80
2023/05/09 07:40:21;;;;;;;14.23;11.65;;;18.80;99.90;;;-144.05;62.15;56959.28;5002834;28;20025;-80
2023/05/09 07:42:48;;;;;;;15.07;11.93;;;18.80;99.90;;;-144.05;62.27;56946.53;5003010;28;20421;-79
2023/05/09 07:45:15;;;;;;;16.45;12.27;;;19.00;99.90;;;-144.05;62.99;56942.28;5020082;28;20026;-80
2023/05/09 07:47:41;;;;;;;13.52;11.43;;;19.00;99.90;;;-144.05;62.81;56944.41;5020441;28;20083;-81
2023/05/09 07:50:07;;;;;;;13.40;10.85;;;18.90;99.90;;;-144.05;61.90;56967.78;5002440;28;20038;-79
2023/05/09 07:52:33;;;;;;;16.02;11.18;;;18.80;99.90;;;-144.05;62.70;56959.28;5003596;28;20030;-80
2023/05/09 07:54:59;;;;;;;13.25;10.85;;;18.80;99.90;;;-144.05;62.17;56961.41;5020941;28;20068;-81
2023/05/09 07:57:25;;;;;;;16.27;11.57;;;18.70;99.90;;;-144.05;62.26;56946.53;5021352;28;20033;-78
2023/05/09 07:59:51;;;;;;;14.98;10.75;;;18.50;99.90;;;-144.05;62.93;56950.78;5021630;28;20084;-80
2023/05/09 08:02:17;;;;;;;13.50;10.90;;;18.50;99.90;;;-144.05;63.44;56948.66;5021024;28;20026;-80
2023/05/09 08:04:43;;;;;;;11.88;9.93;;;18.40;99.90;;;-144.05;63.95;56950.78;5002559;28;20153;-80
2023/05/09 08:07:10;;;;;;;14.40;11.13;;;18.30;99.90;;;-144.05;64.28;56942.28;5022060;28;20041;-78
2023/05/09 08:09:36;;;;;;;15.75;11.32;;;18.40;99.90;;;-144.05;63.61;56942.28;5001455;28;20030;-81
2023/05/09 08:12:02;;;;;;;14.38;10.93;;;18.40;99.90;;;-144.05;63.01;56959.28;5020896;28;20041;-82
2023/05/09 08:14:28;;;;;;;15.77;11.65;;;18.50;99.90;;;-144.05;62.82;56933.78;5001523;28;20030;-81
2023/05/09 08:16:54;;;;;;;15.85;11.02;;;18.50;99.90;;;-144.05;63.11;56940.16;5001801;28;20092;-81
2023/05/09 08:19:22;;;;;;;14.68;11.65;;;18.50;99.90;;;-144.05;62.64;56935.91;5002019;28;20022;-80
2023/05/09 08:21:48;;;;;;;15.93;12.05;;;18.40;99.90;;;-144.05;62.87;56952.91;5019956;28;20068;-81
2023/05/09 08:24:14;;;;;;;13.82;10.65;;;18.50;99.90;;;-144.05;62.77;56927.41;5026944;28;20013;-79
2023/05/09 08:26:39;;;;;;;13.05;10.48;;;18.70;99.90;;;-144.05;61.80;56944.41;5028743;28;20072;-81
2023/05/09 08:29:06;;;;;;;17.65;9.90;;;19.00;99.90;;;-144.05;60.09;56963.53;5028025;28;20049;-79
2023/05/09 08:31:31;;;;;;;13.10;10.07;;;19.10;99.90;;;-144.05;60.58;56955.03;5025478;28;20041;-78
2023/05/09 08:33:57;;;;;;;14.30;10.98;;;19.30;99.90;;;-144.05;60.02;56931.66;5022461;28;20037;-80
2023/05/09 08:36:23;;;;;;;14.63;9.93;;;19.30;99.90;;;-144.05;59.40;56967.78;5022943;28;20493;-83
2023/05/09 08:38:49;;;;;;;12.38;10.05;;;19.30;99.90;;;-144.05;58.85;56955.03;5003677;28;20631;-81
2023/05/09 08:41:15;;;;;;;15.40;10.50;;;19.30;99.90;;;-144.05;59.53;56969.91;5023226;28;20033;-81
2023/05/09 08:43:43;;;;;;;12.48;9.43;;;19.10;99.90;;;-144.05;60.40;56955.03;5020578;28;20022;-81
2023/05/09 08:46:11;;;;;;;13.38;8.95;;;19.00;99.90;;;-144.05;60.41;56950.78;5007835;28;20072;-79
2023/05/09 08:48:41;;;;;;;12.90;9.95;;;18.90;99.90;;;-144.05;59.62;56972.03;5007692;28;20029;-80
2023/05/09 08:51:10;;;;;;;11.52;9.73;;;18.70;99.90;;;-144.05;60.24;56967.78;5008880;28;20478;-81
2023/05/09 08:53:36;;;;;;;17.23;10.70;;;18.80;99.90;;;-144.05;60.07;56933.78;5008131;28;20034;-80
2023/05/09 08:56:03;;;;;;;12.00;9.60;;;19.00;99.90;;;-144.05;60.37;56955.03;5007964;28;20512;-79
2023/05/09 08:58:32;;;;;;;12.43;9.32;;;19.30;99.90;;;-144.05;58.78;56940.16;5024900;28;20034;-80
2023/05/09 09:01:00;;;;;;;10.90;9.63;;;19.40;99.90;;;-144.05;57.52;56967.78;5007568;28;20026;-81
2023/05/09 09:03:26;;;;;;;12.50;9.85;;;19.50;99.90;;;-144.05;57.83;56944.41;5007590;28;20587;-82
2023/05/09 09:05:54;;;;;;;12.93;9.40;;;19.60;99.90;;;-144.05;57.01;56980.53;5024906;28;20040;-79
2023/05/09 09:08:22;;;;;;;14.52;10.18;;;19.60;99.90;;;-144.05;57.25;56955.03;5024415;28;20038;-81
2023/05/09 09:10:48;;;;;;;13.07;9.60;;;19.60;99.90;;;-144.05;57.56;56940.16;5006959;28;20030;-82
2023/05/09 09:13:16;;;;;;;12.48;9.20;;;19.60;99.90;;;-144.05;57.36;56961.41;5006614;28;20076;-79
2023/05/09 09:15:45;;;;;;;11.43;9.88;;;19.70;99.90;;;-144.05;56.80;56957.16;5024790;28;20033;-82
2023/05/09 09:18:28;;;;;;;11.18;8.85;;;19.70;99.90;;;-144.05;56.25;56961.41;5006697;28;20033;-82
2023/05/09 09:21:08;;;;;;;13.05;8.32;;;19.90;99.90;;;-144.05;55.55;56957.16;5023850;28;20054;-82
2023/05/09 09:23:41;;;;;;;8.95;8.05;;;20.00;99.90;;;-144.05;54.65;56991.13;5023419;28;20080;-82
2023/05/09 09:26:07;;;;;;;10.18;6.47;;;20.00;99.90;;;-144.05;54.60;56974.16;5023403;28;20037;-79
2023/05/09 09:28:34;;;;;;;15.20;7.93;;;20.30;99.90;;;-144.05;53.64;56961.41;5022500;28;20044;-79
2023/05/09 09:31:01;;;;;;;11.55;7.10;;;20.50;99.90;;;-144.05;52.63;56967.78;5005869;28;20037;-81
2023/05/09 09:33:28;;;;;;;9.55;7.25;;;21.00;99.90;;;-144.05;51.26;56989.00;5006644;28;20026;-80
2023/05/09 09:35:56;;;;;;;7.43;6.40;;;21.30;99.90;;;-144.05;50.36;56978.41;5024655;28;20030;-82
2023/05/09 09:38:24;;;;;;;9.35;5.68;;;21.20;99.90;;;-144.05;50.04;56984.78;5024972;28;20030;-82
2023/05/09 09:40:55;;;;;;;6.40;4.82;;;21.30;99.90;;;-144.05;51.35;56980.53;5008780;28;20061;-81
2023/05/09 09:43:30;;;;;;;9.32;5.72;;;21.10;99.90;;;-144.05;49.86;56986.91;5009457;28;20026;-80
2023/05/09 09:46:01;;;;;;;;;;;21.10;99.90;;;-144.05;47.98;56993.25;5025967;28;20030;-83
2023/05/09 09:48:36;;;;;;;8.80;4.53;;;21.60;99.90;;;-144.05;48.10;56997.50;5006892;28;19917;-81
2023/05/09 09:51:10;;;;;;;8.70;4.30;;;21.30;99.90;;;-144.05;49.63;56967.78;5003229;28;20064;-80
2023/05/09 09:53:43;;;;;;;8.13;5.38;;;21.20;99.90;;;-144.05;48.65;56967.78;5020151;28;20029;-79
2023/05/09 09:56:10;;;;;;;8.25;5.03;;;21.00;99.90;;;-144.05;48.86;56997.50;5018794;28;20034;-81
2023/05/09 09:58:36;;;;;;;5.82;4.82;;;21.10;99.90;;;-144.05;48.85;57006.00;5018224;28;20068;-84